Архив погоды в Степановке

Метеограмма Степановка
Четверг, 27 Июня
Время местн. Темп Ветер Видим Явления Облачность нижн/средн/верх Атм. давл. Влжн Точка росы ВНГО R Сост. почвы Tg s
Напр Скр Прв ур.ст ур.м изм
06:00 +18.2° Ю 1 - 20 км - незначительная облачность 749 759 +0.4 69% +12.5° более 2.5 км 0 Сухая (без трещин) - -
03:00 +16.1° Ю-В 2 - 20 км - переменная облачность 749 758 -0.2 77% +12° более 2.5 км - - - -
00:00 +17.5° Ю-В 1 - 20 км - переменная облачность 749 758 -0.4 73% +12.7° более 2.5 км - - - -
Среда, 26 Июня
Время местн. Темп Ветер Видим Явления Облачность нижн/средн/верх Атм. давл. Влжн Точка росы ВНГО R Сост. почвы Tg s
Напр Скр Прв ур.ст ур.м изм
21:00 +20° Ю 1 - 20 км - облачно с прояснениями 750 759 0 65% +13.3° 1 км - - - -
18:00 +25.9° Ю 1 - 20 км - облачно 750 759 -0.8 41% +11.6° 1 км 0 - - -
15:00 +25.6° Ю-В 1 - 20 км - облачно с прояснениями 750 759 -0.5 40% +10.9° 1 км - - - -
12:00 +26.3° З 1 - 20 км - переменная облачность 751 760 -0.7 35% +9.7° 1 км - - - -
09:00 +24.2° Ю,Ю-З 1 - 20 км - переменная облачность 752 761 -0.3 48% +12.6° более 2.5 км - - - -
06:00 +15° Ю,Ю-В 1 - 20 км - переменная облачность 752 761 +0.3 88% +13° более 2.5 км 0 Влажная (без луж) - -
03:00 +11.3° штиль 0 - 20 км - переменная облачность 752 761 0 94% +10.4° более 2.5 км - - - -
00:00 +13.5° штиль 0 - 20 км - переменная облачность 752 761 +0.1 94% +12.6° - - - - -
Вторник, 25 Июня
Время местн. Темп Ветер Видим Явления Облачность нижн/средн/верх Атм. давл. Влжн Точка росы ВНГО R Сост. почвы Tg s
Напр Скр Прв ур.ст ур.м изм
21:00 +17.9° Ю,Ю-В 1 - 20 км - переменная облачность 751 761 +0.4 85% +15.4° - - - - -
18:00 +21.7° Ю,Ю-З 1 - 20 км - преимущественно облачно 751 760 +0.5 58% +13.2° 1 км 0 - - -
15:00 +20.4° З 2 - 20 км - облачно 751 760 +0.5 64% +13.3° 1 км - - - -
12:00 +20° З,Ю-З 2 - 20 км - облачно 750 759 +0.1 62% +12.4° 1 км - - - -
09:00 +17.7° Ю-З 2 - 4 км дымка облачно 750 759 +0.2 73% +12.7° 1 км - - - -
06:00 +13.2° Ю-З 1 - 4 км дымка облачно 750 759 +0.3 94% +12.2° - 0 Влажная (без луж) - -
03:00 +12.1° штиль 0 - 4 км дымка облачно 750 759 +0.2 95% +11.3° - - - - -
00:00 +13.7° Ю,Ю-З 1 - 20 км - преимущественно облачно 749 759 -0.2 93% +12.6° 1 км - - - -
Понедельник, 24 Июня
Время местн. Темп Ветер Видим Явления Облачность нижн/средн/верх Атм. давл. Влжн Точка росы ВНГО R Сост. почвы Tg s
Напр Скр Прв ур.ст ур.м изм
21:00 +14.7° Ю,Ю-З 1 - 20 км - облачно с прояснениями 750 759 +0.5 93% +13.5° 1 км - - - -
18:00 +15.3° Ю-З 3 - 20 км дождь облачно 749 758 +1 91% +13.8° - 9 - - -
15:00 +15.6° З 4 - 4 км умеренный непрерывный дождь облачно 748 757 +0.9 93% +14.4° 600 м - - - -
12:00 +15.9° З,Ю-З 3 - 10 км слабый дождь с перерывами {ливневые осадки} облачно 747 756 +0.3 92% +14.6° 600 м - - - -
09:00 +15.5° Ю,Ю-З 1 - 10 км слабый непрерывный дождь {ливневые осадки} облачно 747 756 +0.2 93% +14.4° 600 м - - - -
06:00 +14.5° Ю,Ю-З 1 - 10 км слабый ливневый дождь {гроза} облачно 747 756 +0.5 94% +13.6° 1 км 9 Сырая (есть малые или большие лужи) - -
03:00 +14.8° З 2 - 20 км небо без изменений {гроза, ливневые осадки} облачно 746 755 -0.9 93% +13.7° 1 км - - - -